createdAt,value
2018-12-24T00:02:03.606Z,4.15
2018-12-24T00:04:31.604Z,3.90
2018-12-24T00:06:59.378Z,4.20
2018-12-24T00:09:27.527Z,4.22
2018-12-24T00:11:55.502Z,4.12
2018-12-24T00:14:23.491Z,3.90
2018-12-24T00:16:51.500Z,4.37
2018-12-24T00:19:20.021Z,5.18
2018-12-24T00:21:47.969Z,4.30
2018-12-24T00:24:16.460Z,5.07
2018-12-24T00:26:44.587Z,4.93
2018-12-24T00:29:12.327Z,5.05
2018-12-24T00:31:40.325Z,4.60
2018-12-24T00:34:08.850Z,4.37
2018-12-24T00:36:37.334Z,5.30
2018-12-24T00:39:06.818Z,5.68
2018-12-24T00:41:34.558Z,6.72
2018-12-24T00:44:02.531Z,8.23
2018-12-24T00:46:30.702Z,9.27
2018-12-24T00:48:58.648Z,10.50
2018-12-24T00:51:27.194Z,11.68
2018-12-24T00:53:55.483Z,11.38
2018-12-24T00:56:22.977Z,10.95
2018-12-24T00:58:50.991Z,12.60
2018-12-24T01:01:19.105Z,11.90
2018-12-24T01:03:47.183Z,12.45
2018-12-24T01:06:15.393Z,10.63
2018-12-24T01:08:43.820Z,11.18
2018-12-24T01:11:11.500Z,10.57
2018-12-24T01:13:39.244Z,10.57
2018-12-24T01:16:07.814Z,11.32
2018-12-24T01:18:35.535Z,15.98
2018-12-24T01:21:03.520Z,12.07
2018-12-24T01:23:31.267Z,10.60
2018-12-24T01:25:59.540Z,9.88
2018-12-24T01:28:27.670Z,9.82
2018-12-24T01:30:55.805Z,9.55
2018-12-24T01:33:24.348Z,9.90
2018-12-24T01:35:52.492Z,10.07
2018-12-24T01:38:20.585Z,9.70
2018-12-24T01:40:48.597Z,9.73
2018-12-24T01:43:16.629Z,8.93
2018-12-24T01:45:44.639Z,8.85
2018-12-24T01:48:12.380Z,7.37
2018-12-24T01:50:40.360Z,7.72
2018-12-24T01:53:08.307Z,7.93
2018-12-24T01:55:36.486Z,7.10
2018-12-24T01:58:04.657Z,8.13
2018-12-24T02:00:33.322Z,6.87
2018-12-24T02:03:00.740Z,7.00
2018-12-24T02:05:29.136Z,7.60
2018-12-24T02:07:57.265Z,6.15
2018-12-24T02:10:25.117Z,6.47
2018-12-24T02:12:53.127Z,7.35
2018-12-24T02:15:24.060Z,6.80
2018-12-24T02:17:51.830Z,6.20
2018-12-24T02:20:19.332Z,5.85
2018-12-24T02:22:47.210Z,6.30
2018-12-24T02:25:15.283Z,5.50
2018-12-24T02:27:43.967Z,5.22
2018-12-24T02:30:12.026Z,4.57
2018-12-24T02:32:40.585Z,4.40
2018-12-24T02:35:08.514Z,4.75
2018-12-24T02:37:36.609Z,6.03
2018-12-24T02:40:04.397Z,4.90
2018-12-24T02:42:32.090Z,4.68
2018-12-24T02:45:00.570Z,4.70
2018-12-24T02:47:28.656Z,5.00
2018-12-24T02:49:57.529Z,4.45
2018-12-24T02:52:28.000Z,5.47
2018-12-24T02:54:56.014Z,8.40
2018-12-24T02:57:24.201Z,5.32
2018-12-24T02:59:52.164Z,5.47
2018-12-24T03:02:20.338Z,4.72
2018-12-24T03:04:48.396Z,5.10
2018-12-24T03:07:17.051Z,5.05
2018-12-24T03:09:45.623Z,4.87
2018-12-24T03:12:13.432Z,4.82
2018-12-24T03:14:41.527Z,4.80
2018-12-24T03:17:09.720Z,4.65
2018-12-24T03:19:37.839Z,4.78
2018-12-24T03:22:06.266Z,5.18
2018-12-24T03:24:34.554Z,5.57
2018-12-24T03:27:02.399Z,4.62
2018-12-24T03:29:31.062Z,5.15
2018-12-24T03:31:58.847Z,4.57
2018-12-24T03:34:26.890Z,4.62
2018-12-24T03:36:55.047Z,4.53
2018-12-24T03:39:23.173Z,4.97
2018-12-24T03:41:51.020Z,4.60
2018-12-24T03:44:19.103Z,5.18
2018-12-24T03:46:47.156Z,4.80
2018-12-24T03:49:15.102Z,3.90
2018-12-24T03:51:43.224Z,3.67
2018-12-24T03:54:11.207Z,3.87
2018-12-24T03:56:39.351Z,3.72
2018-12-24T03:59:07.088Z,4.15
2018-12-24T04:01:35.175Z,3.62
2018-12-24T04:04:03.356Z,4.10
2018-12-24T04:06:31.958Z,3.58
2018-12-24T04:09:00.036Z,4.20
2018-12-24T04:11:27.878Z,4.25
2018-12-24T04:13:56.047Z,5.20
2018-12-24T04:16:24.243Z,4.00
2018-12-24T04:18:52.080Z,3.22
2018-12-24T04:21:22.701Z,2.67
2018-12-24T04:23:48.019Z,2.67
2018-12-24T04:26:16.103Z,3.20
2018-12-24T04:28:44.068Z,3.80
2018-12-24T04:31:12.024Z,2.60
2018-12-24T04:33:40.588Z,2.60
2018-12-24T04:36:09.495Z,2.30
2018-12-24T04:38:37.371Z,2.05
2018-12-24T04:41:05.466Z,1.58
2018-12-24T04:43:33.916Z,2.00
2018-12-24T04:46:01.745Z,2.37
2018-12-24T04:48:29.870Z,2.72
2018-12-24T04:50:57.669Z,2.08
2018-12-24T04:53:25.839Z,2.45
2018-12-24T04:55:53.698Z,2.85
2018-12-24T04:58:21.759Z,3.00
2018-12-24T05:00:49.920Z,2.90
2018-12-24T05:03:17.977Z,2.40
2018-12-24T05:05:46.277Z,2.67
2018-12-24T05:08:14.113Z,2.30
2018-12-24T05:10:42.201Z,1.45
2018-12-24T05:13:10.548Z,1.45
2018-12-24T05:15:38.489Z,1.55
2018-12-24T05:18:06.639Z,1.30
2018-12-24T05:20:35.085Z,1.40
2018-12-24T05:23:03.152Z,1.50
2018-12-24T05:25:31.256Z,1.12
2018-12-24T05:27:59.940Z,1.45
2018-12-24T05:30:28.131Z,1.67
2018-12-24T05:32:56.873Z,1.73
2018-12-24T05:35:25.330Z,1.73
2018-12-24T05:37:53.909Z,1.40
2018-12-24T05:40:22.457Z,1.40
2018-12-24T05:42:50.639Z,1.00
2018-12-24T05:45:19.386Z,1.10
2018-12-24T05:47:48.347Z,1.48
2018-12-24T05:50:16.110Z,1.30
2018-12-24T05:52:44.238Z,1.25
2018-12-24T05:55:12.398Z,1.25
2018-12-24T05:57:40.289Z,1.40
2018-12-24T06:00:08.263Z,1.40
2018-12-24T06:02:36.891Z,1.05
2018-12-24T06:05:05.070Z,1.20
2018-12-24T06:07:33.175Z,1.15
2018-12-24T06:10:01.161Z,1.58
2018-12-24T06:12:29.154Z,1.10
2018-12-24T06:14:57.251Z,1.33
2018-12-24T06:17:25.348Z,2.78
2018-12-24T06:19:53.224Z,1.30
2018-12-24T06:22:21.256Z,1.58
2018-12-24T06:24:49.094Z,0.88
2018-12-24T06:27:18.240Z,1.30
2018-12-24T06:29:46.301Z,1.62
2018-12-24T06:32:14.102Z,1.40
2018-12-24T06:34:42.764Z,1.55
2018-12-24T06:37:10.485Z,1.40
2018-12-24T06:39:38.595Z,1.33
2018-12-24T06:42:07.099Z,1.40
2018-12-24T06:44:35.388Z,1.12
2018-12-24T06:47:03.455Z,1.90
2018-12-24T06:49:32.231Z,1.15
2018-12-24T06:52:00.301Z,1.33
2018-12-24T06:54:28.156Z,1.20
2018-12-24T06:56:56.360Z,1.35
2018-12-24T06:59:24.069Z,1.05
2018-12-24T07:01:52.214Z,1.40
2018-12-24T07:04:20.712Z,1.62
2018-12-24T07:06:48.713Z,1.45
2018-12-24T07:09:16.616Z,1.52
2018-12-24T07:11:44.824Z,1.40
2018-12-24T07:14:15.569Z,1.58
2018-12-24T07:16:41.471Z,1.62
2018-12-24T07:19:09.589Z,1.60
2018-12-24T07:21:37.738Z,1.40
2018-12-24T07:24:05.842Z,1.55
2018-12-24T07:26:34.859Z,1.95
2018-12-24T07:29:02.576Z,1.60
2018-12-24T07:31:31.281Z,2.20
2018-12-24T07:33:59.352Z,1.52
2018-12-24T07:37:01.494Z,1.73
2018-12-24T07:40:34.382Z,1.73
2018-12-24T07:43:02.927Z,1.80
2018-12-24T07:45:30.849Z,1.95
2018-12-24T07:47:59.435Z,1.52
2018-12-24T07:50:27.519Z,2.42
2018-12-24T07:52:56.170Z,1.90
2018-12-24T07:55:24.285Z,2.33
2018-12-24T07:57:52.737Z,2.10
2018-12-24T08:00:20.846Z,2.20
2018-12-24T08:02:49.086Z,1.83
2018-12-24T08:05:17.178Z,1.77
2018-12-24T08:07:45.550Z,1.80
2018-12-24T08:10:13.751Z,1.98
2018-12-24T08:12:41.954Z,1.50
2018-12-24T08:15:09.754Z,1.80
2018-12-24T08:17:38.451Z,1.58
2018-12-24T08:20:06.532Z,1.80
2018-12-24T08:22:34.927Z,1.75
2018-12-24T08:25:03.219Z,3.30
2018-12-24T08:27:31.140Z,11.25
2018-12-24T08:29:59.040Z,15.57
2018-12-24T08:32:27.227Z,7.75
2018-12-24T08:34:56.037Z,3.45
2018-12-24T08:37:24.174Z,4.47
2018-12-24T08:39:52.241Z,4.85
2018-12-24T08:42:21.485Z,4.30
2018-12-24T08:44:49.720Z,4.40
2018-12-24T08:47:17.552Z,4.62
2018-12-24T08:49:45.742Z,6.05
2018-12-24T08:52:13.772Z,4.65
2018-12-24T08:54:41.777Z,2.92
2018-12-24T08:57:09.780Z,2.00
2018-12-24T08:59:37.798Z,2.55
2018-12-24T09:02:05.880Z,3.10
2018-12-24T09:04:33.864Z,2.42
2018-12-24T09:07:02.080Z,3.15
2018-12-24T09:09:29.806Z,2.30
2018-12-24T09:11:58.197Z,2.47
2018-12-24T09:14:26.009Z,1.62
2018-12-24T09:16:53.900Z,1.45
2018-12-24T09:19:21.659Z,1.80
2018-12-24T09:21:49.523Z,2.55
2018-12-24T09:24:17.703Z,1.70
2018-12-24T09:26:45.771Z,1.60
2018-12-24T09:29:13.896Z,2.08
2018-12-24T09:31:41.732Z,1.95
2018-12-24T09:34:09.470Z,1.52
2018-12-24T09:36:37.747Z,1.95
2018-12-24T09:39:06.873Z,2.15
2018-12-24T09:41:35.550Z,2.47
2018-12-24T09:44:04.196Z,1.70
2018-12-24T09:46:31.956Z,2.00
2018-12-24T09:49:00.519Z,1.65
2018-12-24T09:51:28.720Z,1.80
2018-12-24T09:53:57.193Z,1.87
2018-12-24T09:56:25.517Z,1.62
2018-12-24T09:58:54.004Z,1.90
2018-12-24T10:01:23.096Z,1.65
2018-12-24T10:03:53.090Z,1.65
2018-12-24T10:06:25.735Z,1.12
2018-12-24T10:08:53.916Z,1.55
2018-12-24T10:11:22.526Z,1.60
2018-12-24T10:13:51.301Z,1.48
2018-12-24T10:16:19.271Z,1.37
2018-12-24T10:18:47.871Z,1.80
2018-12-24T10:21:15.654Z,1.40
2018-12-24T10:23:44.091Z,1.50
2018-12-24T10:26:12.566Z,1.80
2018-12-24T10:28:40.718Z,1.62
2018-12-24T10:31:08.549Z,1.60
2018-12-24T10:33:36.277Z,1.50
2018-12-24T10:36:04.923Z,1.73
2018-12-24T10:38:33.237Z,1.40
2018-12-24T10:41:04.176Z,1.85
2018-12-24T10:43:33.367Z,1.67
2018-12-24T10:46:01.367Z,1.50
2018-12-24T10:48:29.470Z,1.42
2018-12-24T10:50:58.098Z,1.67
2018-12-24T10:53:26.195Z,1.40
2018-12-24T10:55:54.754Z,1.20
2018-12-24T10:58:23.638Z,1.60
2018-12-24T11:00:52.275Z,1.48
2018-12-24T11:03:20.313Z,1.48
2018-12-24T11:05:48.021Z,1.62
2018-12-24T11:08:15.969Z,1.67
2018-12-24T11:10:46.668Z,1.67
2018-12-24T11:13:13.165Z,1.80
2018-12-24T11:15:41.877Z,1.62
2018-12-24T11:18:09.886Z,1.92
2018-12-24T11:20:38.328Z,1.70
2018-12-24T11:23:06.906Z,1.48
2018-12-24T11:25:36.056Z,1.40
2018-12-24T11:28:04.052Z,1.50
2018-12-24T11:30:31.731Z,1.52
2018-12-24T11:33:00.349Z,1.42
2018-12-24T11:35:28.500Z,1.30
2018-12-24T11:37:57.191Z,1.40
2018-12-24T11:40:25.795Z,1.50
2018-12-24T11:42:55.186Z,1.30
2018-12-24T11:45:23.887Z,1.58
2018-12-24T11:47:51.982Z,1.50
2018-12-24T11:50:20.616Z,1.87
2018-12-24T11:52:49.235Z,1.55
2018-12-24T11:55:17.412Z,1.48
2018-12-24T11:57:47.439Z,1.80
2018-12-24T12:00:14.198Z,1.67
2018-12-24T12:02:43.433Z,1.62
2018-12-24T12:05:11.760Z,1.50
2018-12-24T12:07:39.728Z,1.60
2018-12-24T12:10:07.802Z,1.40
2018-12-24T12:12:35.940Z,1.48
2018-12-24T12:15:04.006Z,1.30
2018-12-24T12:17:32.568Z,1.42
2018-12-24T12:20:00.958Z,1.60
2018-12-24T12:22:28.860Z,1.58
2018-12-24T12:24:56.934Z,1.30
2018-12-24T12:27:25.795Z,1.75
2018-12-24T12:29:54.567Z,1.50
2018-12-24T12:32:23.262Z,1.35
2018-12-24T12:34:51.458Z,1.30
2018-12-24T12:37:20.018Z,1.50
2018-12-24T12:39:48.633Z,1.25
2018-12-24T12:42:17.759Z,1.77
2018-12-24T12:44:46.192Z,1.60
2018-12-24T12:47:15.387Z,1.37
2018-12-24T12:49:43.246Z,1.98
2018-12-24T12:52:11.226Z,1.60
2018-12-24T12:54:39.744Z,1.87
2018-12-24T12:57:08.672Z,1.60
2018-12-24T12:59:36.799Z,1.60
2018-12-24T13:02:04.658Z,1.33
2018-12-24T13:04:33.400Z,1.30
2018-12-24T13:07:01.619Z,1.27
2018-12-24T13:09:30.167Z,1.55
2018-12-24T13:11:58.299Z,1.58
2018-12-24T13:14:26.958Z,1.50
2018-12-24T13:16:55.039Z,1.37
2018-12-24T13:19:23.219Z,1.67
2018-12-24T13:21:53.500Z,1.85
2018-12-24T13:24:21.500Z,1.52
2018-12-24T13:26:49.914Z,1.23
2018-12-24T13:29:18.068Z,1.60
2018-12-24T13:31:46.649Z,1.40
2018-12-24T13:34:14.488Z,1.80
2018-12-24T13:36:42.527Z,1.50
2018-12-24T13:39:10.866Z,1.55
2018-12-24T13:41:39.499Z,1.50
2018-12-24T13:44:08.099Z,1.48
2018-12-24T13:46:36.187Z,1.95
2018-12-24T13:49:04.573Z,1.62
2018-12-24T13:51:33.764Z,1.58
2018-12-24T13:54:01.743Z,1.50
2018-12-24T13:56:30.193Z,1.98
2018-12-24T13:58:58.004Z,2.12
2018-12-24T14:01:26.625Z,2.00
2018-12-24T14:03:55.310Z,1.73
2018-12-24T14:06:23.410Z,1.40
2018-12-24T14:08:51.585Z,1.70
2018-12-24T14:11:20.312Z,1.40
2018-12-24T14:13:48.427Z,1.37
2018-12-24T14:16:17.593Z,1.15
2018-12-24T14:18:45.734Z,1.75
2018-12-24T14:21:13.890Z,1.00
2018-12-24T14:23:41.949Z,1.37
2018-12-24T14:26:10.042Z,1.50
2018-12-24T14:28:37.785Z,1.55
2018-12-24T14:31:05.880Z,1.30
2018-12-24T14:33:34.213Z,1.37
2018-12-24T14:36:02.172Z,1.83
2018-12-24T14:38:30.261Z,1.65
2018-12-24T14:40:58.776Z,2.22
2018-12-24T14:43:27.387Z,3.05
2018-12-24T14:45:55.214Z,2.87
2018-12-24T14:48:23.799Z,2.33
2018-12-24T14:50:52.504Z,2.28
2018-12-24T14:53:20.228Z,1.58
2018-12-24T14:55:48.435Z,1.58
2018-12-24T14:58:16.595Z,1.50
2018-12-24T15:00:44.482Z,1.42
2018-12-24T15:03:12.642Z,1.37
2018-12-24T15:05:40.703Z,1.60
2018-12-24T15:08:08.768Z,1.60
2018-12-24T15:10:36.872Z,1.70
2018-12-24T15:13:04.915Z,1.95
2018-12-24T15:15:32.624Z,1.73
2018-12-24T15:18:00.776Z,1.65
2018-12-24T15:20:28.621Z,2.00
2018-12-24T15:22:56.482Z,1.90
2018-12-24T15:25:24.601Z,1.73
2018-12-24T15:27:52.827Z,1.90
2018-12-24T15:30:22.482Z,2.28
2018-12-24T15:32:50.734Z,1.92
2018-12-24T15:35:18.810Z,2.10
2018-12-24T15:37:46.885Z,1.80
2018-12-24T15:40:14.963Z,2.53
2018-12-24T15:42:43.028Z,2.80
2018-12-24T15:45:11.181Z,3.17
2018-12-24T15:47:39.300Z,3.03
2018-12-24T15:50:07.396Z,3.22
2018-12-24T15:52:36.226Z,3.05
2018-12-24T15:55:04.786Z,3.62
2018-12-24T15:57:32.659Z,3.72
2018-12-24T16:00:00.778Z,4.00
2018-12-24T16:02:28.952Z,3.35
2018-12-24T16:04:57.205Z,3.75
2018-12-24T16:07:25.270Z,3.60
2018-12-24T16:09:53.546Z,3.97
2018-12-24T16:12:21.601Z,4.32
2018-12-24T16:14:49.699Z,4.10
2018-12-24T16:17:17.861Z,5.03
2018-12-24T16:19:45.901Z,4.43
2018-12-24T16:22:13.986Z,3.60
2018-12-24T16:24:41.859Z,3.17
2018-12-24T16:27:09.966Z,3.90
2018-12-24T16:29:38.137Z,3.55
2018-12-24T16:32:05.863Z,4.20
2018-12-24T16:34:33.956Z,4.80
2018-12-24T16:37:02.139Z,5.35
2018-12-24T16:39:30.314Z,6.65
2018-12-24T16:41:58.413Z,5.60
2018-12-24T16:44:26.449Z,6.82
2018-12-24T16:46:59.385Z,6.10
2018-12-24T16:49:22.782Z,5.18
2018-12-24T16:51:50.560Z,5.57
2018-12-24T16:54:19.058Z,5.93
2018-12-24T16:56:47.309Z,5.65
2018-12-24T16:59:15.488Z,5.93
2018-12-24T17:01:43.590Z,6.03
2018-12-24T17:04:11.538Z,7.12
2018-12-24T17:06:39.605Z,6.62
2018-12-24T17:09:07.757Z,5.62
2018-12-24T17:11:35.822Z,6.70
2018-12-24T17:14:03.615Z,6.30
2018-12-24T17:16:32.407Z,7.93
2018-12-24T17:19:00.766Z,6.53
2018-12-24T17:21:28.813Z,6.40
2018-12-24T17:23:56.698Z,6.50
2018-12-24T17:26:24.620Z,5.62
2018-12-24T17:28:52.740Z,5.70
2018-12-24T17:31:20.838Z,5.65
2018-12-24T17:33:50.182Z,6.12
2018-12-24T17:36:18.035Z,7.40
2018-12-24T17:38:46.652Z,7.18
2018-12-24T17:41:14.627Z,5.68
2018-12-24T17:43:42.335Z,6.62
2018-12-24T17:46:10.031Z,6.87
2018-12-24T17:48:38.740Z,6.10
2018-12-24T17:51:06.874Z,8.82
2018-12-24T17:53:34.870Z,7.78
2018-12-24T17:56:02.832Z,7.37
2018-12-24T17:58:31.053Z,9.13
2018-12-24T18:00:59.440Z,10.45
2018-12-24T18:03:27.407Z,12.27
2018-12-24T18:05:55.542Z,13.60
2018-12-24T18:08:23.521Z,11.30
2018-12-24T18:10:52.199Z,10.85
2018-12-24T18:13:20.293Z,9.07
2018-12-24T18:15:48.360Z,8.48
2018-12-24T18:18:16.146Z,8.15
2018-12-24T18:20:44.267Z,7.57
2018-12-24T18:23:12.249Z,8.40
2018-12-24T18:25:40.304Z,7.78
2018-12-24T18:28:08.391Z,7.50
2018-12-24T18:30:36.578Z,7.93
2018-12-24T18:33:04.251Z,7.03
2018-12-24T18:35:32.836Z,7.12
2018-12-24T18:38:00.892Z,7.65
2018-12-24T18:40:29.526Z,7.05
2018-12-24T18:42:57.966Z,6.70
2018-12-24T18:45:25.723Z,5.53
2018-12-24T18:47:54.347Z,5.82
2018-12-24T18:50:23.436Z,4.93
2018-12-24T18:52:50.972Z,7.47
2018-12-24T18:55:20.325Z,5.82
2018-12-24T18:57:47.299Z,5.55
2018-12-24T19:00:15.645Z,6.50
2018-12-24T19:02:43.770Z,5.30
2018-12-24T19:05:11.829Z,6.45
2018-12-24T19:07:39.909Z,5.97
2018-12-24T19:10:08.108Z,7.03
2018-12-24T19:12:36.255Z,6.72
2018-12-24T19:15:03.781Z,6.55
2018-12-24T19:17:31.873Z,6.30
2018-12-24T19:19:59.639Z,7.55
2018-12-24T19:22:27.639Z,6.85
2018-12-24T19:24:55.602Z,5.93
2018-12-24T19:27:23.486Z,5.70
2018-12-24T19:29:51.412Z,6.97
2018-12-24T19:32:19.480Z,5.78
2018-12-24T19:34:46.938Z,6.50
2018-12-24T19:37:15.030Z,6.60
2018-12-24T19:39:43.653Z,6.87
2018-12-24T19:42:11.454Z,6.93
2018-12-24T19:44:39.935Z,6.97
2018-12-24T19:47:07.941Z,5.90
2018-12-24T19:49:35.913Z,6.12
2018-12-24T19:52:04.196Z,6.60
2018-12-24T19:54:32.013Z,6.82
2018-12-24T19:57:00.122Z,6.87
2018-12-24T19:59:28.696Z,6.43
2018-12-24T20:01:56.482Z,6.37
2018-12-24T20:04:24.546Z,5.60
2018-12-24T20:06:52.688Z,5.43
2018-12-24T20:09:21.388Z,5.85
2018-12-24T20:11:49.502Z,6.30
2018-12-24T20:14:17.663Z,6.57
2018-12-24T20:16:45.359Z,6.65
2018-12-24T20:19:13.164Z,6.07
2018-12-24T20:21:41.622Z,5.53
2018-12-24T20:24:09.812Z,5.65
2018-12-24T20:26:38.505Z,5.40
2018-12-24T20:29:07.092Z,5.95
2018-12-24T20:31:35.067Z,5.20
2018-12-24T20:34:02.937Z,6.70
2018-12-24T20:36:31.293Z,5.93
2018-12-24T20:38:59.041Z,6.62
2018-12-24T20:41:27.115Z,6.22
2018-12-24T20:43:55.376Z,5.97
2018-12-24T20:46:23.503Z,5.78
2018-12-24T20:48:52.572Z,4.85
2018-12-24T20:51:20.014Z,4.80
2018-12-24T20:53:48.020Z,4.70
2018-12-24T20:56:16.049Z,4.87
2018-12-24T20:58:44.175Z,5.45
2018-12-24T21:01:12.828Z,4.75
2018-12-24T21:03:40.614Z,5.70
2018-12-24T21:06:08.667Z,4.87
2018-12-24T21:08:36.723Z,5.25
2018-12-24T21:11:04.604Z,5.80
2018-12-24T21:13:32.658Z,6.12
2018-12-24T21:16:00.730Z,5.47
2018-12-24T21:18:28.518Z,6.10
2018-12-24T21:20:56.772Z,5.10
2018-12-24T21:23:24.855Z,5.00
2018-12-24T21:25:52.926Z,4.75
2018-12-24T21:28:21.304Z,5.50
2018-12-24T21:30:49.075Z,5.90
2018-12-24T21:33:17.139Z,6.35
2018-12-24T21:35:45.284Z,6.57
2018-12-24T21:38:13.808Z,6.72
2018-12-24T21:40:41.838Z,9.38
2018-12-24T21:43:10.043Z,8.15
2018-12-24T21:45:38.139Z,7.00
2018-12-24T21:48:06.265Z,7.25
2018-12-24T21:50:34.310Z,7.10
2018-12-24T21:53:02.321Z,6.75
2018-12-24T21:55:30.509Z,6.37
2018-12-24T21:57:58.833Z,6.25
2018-12-24T22:00:27.045Z,4.80
2018-12-24T22:02:55.912Z,5.45
2018-12-24T22:05:25.428Z,6.20
2018-12-24T22:07:53.310Z,5.97
2018-12-24T22:10:21.207Z,6.15
2018-12-24T22:12:49.418Z,6.20
2018-12-24T22:15:17.562Z,6.00
2018-12-24T22:17:45.718Z,7.90
2018-12-24T22:20:14.235Z,6.72
2018-12-24T22:22:43.955Z,8.10
2018-12-24T22:25:10.532Z,6.80
2018-12-24T22:27:38.894Z,6.85
2018-12-24T22:30:06.642Z,7.43
2018-12-24T22:32:34.723Z,6.55
2018-12-24T22:35:02.721Z,7.35
2018-12-24T22:37:31.062Z,7.20
2018-12-24T22:39:59.168Z,7.75
2018-12-24T22:42:27.447Z,6.75
2018-12-24T22:44:55.522Z,6.43
2018-12-24T22:47:23.581Z,5.68
2018-12-24T22:49:51.667Z,6.70
2018-12-24T22:52:19.757Z,5.93
2018-12-24T22:54:47.879Z,6.15
2018-12-24T22:57:16.094Z,6.60
2018-12-24T22:59:43.842Z,6.65
2018-12-24T23:02:12.411Z,6.35
2018-12-24T23:04:41.121Z,5.62
2018-12-24T23:07:08.854Z,6.20
2018-12-24T23:09:36.717Z,5.80
2018-12-24T23:12:05.307Z,5.82
2018-12-24T23:14:33.356Z,6.00
2018-12-24T23:17:01.484Z,5.40
2018-12-24T23:19:29.433Z,4.47
2018-12-24T23:21:57.138Z,4.80
2018-12-24T23:24:24.977Z,4.50
2018-12-24T23:26:52.815Z,4.20
2018-12-24T23:29:20.857Z,4.07
2018-12-24T23:31:48.955Z,4.65
2018-12-24T23:34:17.361Z,4.78
2018-12-24T23:36:45.554Z,4.70
2018-12-24T23:39:13.573Z,5.80
2018-12-24T23:41:41.674Z,5.85
2018-12-24T23:44:09.725Z,6.25
2018-12-24T23:46:37.795Z,7.50
2018-12-24T23:49:05.821Z,7.93
2018-12-24T23:51:33.772Z,7.22
2018-12-24T23:54:01.920Z,7.62
2018-12-24T23:56:29.894Z,6.95
2018-12-24T23:58:57.956Z,6.32
